sensor_id;sensor_type;location;lat;lon;timestamp;P1;durP1;ratioP1;P2;durP2;ratioP2
15398;SDS011;7797;51.428;6.756;2023-12-22T00:02:20;2.93;;;1.20;;
15398;SDS011;7797;51.428;6.756;2023-12-22T00:04:47;2.60;;;1.43;;
15398;SDS011;7797;51.428;6.756;2023-12-22T00:07:14;2.20;;;1.00;;
15398;SDS011;7797;51.428;6.756;2023-12-22T00:09:41;2.57;;;0.90;;
15398;SDS011;7797;51.428;6.756;2023-12-22T00:12:08;4.10;;;1.37;;
15398;SDS011;7797;51.428;6.756;2023-12-22T00:14:35;3.33;;;1.10;;
15398;SDS011;7797;51.428;6.756;2023-12-22T00:17:03;3.53;;;1.17;;
15398;SDS011;7797;51.428;6.756;2023-12-22T00:19:30;4.77;;;1.20;;
15398;SDS011;7797;51.428;6.756;2023-12-22T00:21:57;3.33;;;1.37;;
15398;SDS011;7797;51.428;6.756;2023-12-22T00:24:24;6.80;;;1.70;;
15398;SDS011;7797;51.428;6.756;2023-12-22T00:26:51;4.87;;;1.27;;
15398;SDS011;7797;51.428;6.756;2023-12-22T00:29:18;6.53;;;1.40;;
15398;SDS011;7797;51.428;6.756;2023-12-22T00:31:46;5.20;;;1.47;;
15398;SDS011;7797;51.428;6.756;2023-12-22T00:34:13;2.83;;;1.00;;
15398;SDS011;7797;51.428;6.756;2023-12-22T00:36:43;4.33;;;1.10;;
15398;SDS011;7797;51.428;6.756;2023-12-22T00:39:10;4.57;;;1.23;;
15398;SDS011;7797;51.428;6.756;2023-12-22T00:41:36;3.30;;;1.13;;
15398;SDS011;7797;51.428;6.756;2023-12-22T00:44:03;6.60;;;1.37;;
15398;SDS011;7797;51.428;6.756;2023-12-22T00:46:30;3.00;;;1.20;;
15398;SDS011;7797;51.428;6.756;2023-12-22T00:48:57;3.30;;;1.60;;
15398;SDS011;7797;51.428;6.756;2023-12-22T00:51:24;4.90;;;1.37;;
15398;SDS011;7797;51.428;6.756;2023-12-22T00:53:51;4.80;;;1.17;;
15398;SDS011;7797;51.428;6.756;2023-12-22T00:56:17;4.03;;;1.43;;
15398;SDS011;7797;51.428;6.756;2023-12-22T00:58:44;3.77;;;0.97;;
15398;SDS011;7797;51.428;6.756;2023-12-22T01:01:22;7.17;;;1.40;;
15398;SDS011;7797;51.428;6.756;2023-12-22T01:03:49;9.10;;;2.00;;
15398;SDS011;7797;51.428;6.756;2023-12-22T01:06:16;7.17;;;1.50;;
15398;SDS011;7797;51.428;6.756;2023-12-22T01:08:43;3.67;;;1.53;;
15398;SDS011;7797;51.428;6.756;2023-12-22T01:11:09;7.17;;;1.50;;
15398;SDS011;7797;51.428;6.756;2023-12-22T01:13:36;4.57;;;1.30;;
15398;SDS011;7797;51.428;6.756;2023-12-22T01:16:03;4.17;;;1.43;;
15398;SDS011;7797;51.428;6.756;2023-12-22T01:18:30;3.03;;;1.37;;
15398;SDS011;7797;51.428;6.756;2023-12-22T01:20:58;5.03;;;1.40;;
15398;SDS011;7797;51.428;6.756;2023-12-22T01:23:24;5.10;;;1.50;;
15398;SDS011;7797;51.428;6.756;2023-12-22T01:25:51;4.00;;;1.40;;
15398;SDS011;7797;51.428;6.756;2023-12-22T01:28:18;4.80;;;1.30;;
15398;SDS011;7797;51.428;6.756;2023-12-22T01:30:45;4.97;;;1.70;;
15398;SDS011;7797;51.428;6.756;2023-12-22T01:33:12;3.47;;;1.40;;
15398;SDS011;7797;51.428;6.756;2023-12-22T01:35:39;9.10;;;1.53;;
15398;SDS011;7797;51.428;6.756;2023-12-22T01:38:06;3.03;;;0.80;;
15398;SDS011;7797;51.428;6.756;2023-12-22T01:40:33;4.43;;;1.50;;
15398;SDS011;7797;51.428;6.756;2023-12-22T01:43:00;4.43;;;1.43;;
15398;SDS011;7797;51.428;6.756;2023-12-22T01:45:27;2.43;;;1.33;;
15398;SDS011;7797;51.428;6.756;2023-12-22T01:47:54;4.27;;;1.37;;
15398;SDS011;7797;51.428;6.756;2023-12-22T01:50:21;1.67;;;0.80;;
15398;SDS011;7797;51.428;6.756;2023-12-22T01:52:48;4.00;;;1.17;;
15398;SDS011;7797;51.428;6.756;2023-12-22T01:55:15;1.10;;;0.80;;
15398;SDS011;7797;51.428;6.756;2023-12-22T01:57:43;3.17;;;1.10;;
15398;SDS011;7797;51.428;6.756;2023-12-22T02:00:11;1.63;;;0.67;;
15398;SDS011;7797;51.428;6.756;2023-12-22T02:02:39;2.97;;;0.97;;
15398;SDS011;7797;51.428;6.756;2023-12-22T02:05:08;3.43;;;0.77;;
15398;SDS011;7797;51.428;6.756;2023-12-22T02:07:38;1.27;;;0.77;;
15398;SDS011;7797;51.428;6.756;2023-12-22T02:10:08;2.37;;;0.60;;
15398;SDS011;7797;51.428;6.756;2023-12-22T02:12:38;2.17;;;0.83;;
15398;SDS011;7797;51.428;6.756;2023-12-22T02:15:05;2.93;;;1.10;;
15398;SDS011;7797;51.428;6.756;2023-12-22T02:17:34;4.03;;;0.90;;
15398;SDS011;7797;51.428;6.756;2023-12-22T02:20:17;1.53;;;0.73;;
15398;SDS011;7797;51.428;6.756;2023-12-22T02:22:44;5.30;;;1.30;;
15398;SDS011;7797;51.428;6.756;2023-12-22T02:25:10;1.47;;;0.63;;
15398;SDS011;7797;51.428;6.756;2023-12-22T02:27:44;3.80;;;1.10;;
15398;SDS011;7797;51.428;6.756;2023-12-22T02:33:01;7.53;;;1.40;;
15398;SDS011;7797;51.428;6.756;2023-12-22T02:35:32;4.80;;;1.30;;
15398;SDS011;7797;51.428;6.756;2023-12-22T02:38:01;4.10;;;1.30;;
15398;SDS011;7797;51.428;6.756;2023-12-22T02:40:29;5.73;;;1.20;;
15398;SDS011;7797;51.428;6.756;2023-12-22T02:42:56;2.87;;;1.03;;
15398;SDS011;7797;51.428;6.756;2023-12-22T02:45:23;2.43;;;1.07;;
15398;SDS011;7797;51.428;6.756;2023-12-22T02:47:50;3.67;;;1.30;;
15398;SDS011;7797;51.428;6.756;2023-12-22T02:50:17;4.67;;;1.73;;
15398;SDS011;7797;51.428;6.756;2023-12-22T02:52:44;3.47;;;1.57;;
15398;SDS011;7797;51.428;6.756;2023-12-22T02:55:11;2.93;;;1.40;;
15398;SDS011;7797;51.428;6.756;2023-12-22T02:57:38;3.97;;;1.07;;
15398;SDS011;7797;51.428;6.756;2023-12-22T03:00:05;3.70;;;1.00;;
15398;SDS011;7797;51.428;6.756;2023-12-22T03:02:32;1.07;;;0.80;;
15398;SDS011;7797;51.428;6.756;2023-12-22T03:04:59;5.20;;;1.33;;
15398;SDS011;7797;51.428;6.756;2023-12-22T03:07:29;3.33;;;1.70;;
15398;SDS011;7797;51.428;6.756;2023-12-22T03:09:56;5.63;;;1.50;;
15398;SDS011;7797;51.428;6.756;2023-12-22T03:12:23;2.60;;;1.33;;
15398;SDS011;7797;51.428;6.756;2023-12-22T03:14:50;5.10;;;1.40;;
15398;SDS011;7797;51.428;6.756;2023-12-22T03:17:16;2.17;;;1.07;;
15398;SDS011;7797;51.428;6.756;2023-12-22T03:19:43;4.83;;;1.27;;
15398;SDS011;7797;51.428;6.756;2023-12-22T03:22:10;4.37;;;1.27;;
15398;SDS011;7797;51.428;6.756;2023-12-22T03:24:37;5.17;;;1.47;;
15398;SDS011;7797;51.428;6.756;2023-12-22T03:27:05;3.77;;;1.27;;
15398;SDS011;7797;51.428;6.756;2023-12-22T03:29:31;7.30;;;1.60;;
15398;SDS011;7797;51.428;6.756;2023-12-22T03:31:58;2.73;;;1.27;;
15398;SDS011;7797;51.428;6.756;2023-12-22T03:34:25;5.10;;;1.60;;
15398;SDS011;7797;51.428;6.756;2023-12-22T03:36:52;4.23;;;1.20;;
15398;SDS011;7797;51.428;6.756;2023-12-22T03:39:19;5.37;;;1.60;;
15398;SDS011;7797;51.428;6.756;2023-12-22T03:41:45;3.87;;;1.10;;
15398;SDS011;7797;51.428;6.756;2023-12-22T03:44:12;5.33;;;1.20;;
15398;SDS011;7797;51.428;6.756;2023-12-22T03:46:39;4.23;;;1.30;;
15398;SDS011;7797;51.428;6.756;2023-12-22T03:49:06;4.17;;;1.37;;
15398;SDS011;7797;51.428;6.756;2023-12-22T03:51:32;3.67;;;1.13;;
15398;SDS011;7797;51.428;6.756;2023-12-22T03:53:59;4.40;;;1.57;;
15398;SDS011;7797;51.428;6.756;2023-12-22T03:56:26;4.40;;;1.40;;
15398;SDS011;7797;51.428;6.756;2023-12-22T03:58:53;6.97;;;1.57;;
15398;SDS011;7797;51.428;6.756;2023-12-22T04:01:20;5.03;;;1.20;;
15398;SDS011;7797;51.428;6.756;2023-12-22T04:03:47;5.93;;;1.40;;
15398;SDS011;7797;51.428;6.756;2023-12-22T04:06:13;3.57;;;1.37;;
15398;SDS011;7797;51.428;6.756;2023-12-22T04:08:40;5.37;;;1.63;;
15398;SDS011;7797;51.428;6.756;2023-12-22T04:11:07;6.23;;;1.57;;
15398;SDS011;7797;51.428;6.756;2023-12-22T04:13:34;2.30;;;1.37;;
15398;SDS011;7797;51.428;6.756;2023-12-22T04:16:00;6.93;;;1.60;;
15398;SDS011;7797;51.428;6.756;2023-12-22T04:18:31;6.90;;;1.60;;
15398;SDS011;7797;51.428;6.756;2023-12-22T04:20:58;4.33;;;1.43;;
15398;SDS011;7797;51.428;6.756;2023-12-22T04:23:25;6.07;;;1.63;;
15398;SDS011;7797;51.428;6.756;2023-12-22T04:25:52;9.33;;;1.80;;
15398;SDS011;7797;51.428;6.756;2023-12-22T04:28:19;7.60;;;2.10;;
15398;SDS011;7797;51.428;6.756;2023-12-22T04:30:45;7.83;;;1.70;;
15398;SDS011;7797;51.428;6.756;2023-12-22T04:33:12;10.03;;;2.27;;
15398;SDS011;7797;51.428;6.756;2023-12-22T04:35:39;8.23;;;1.97;;
15398;SDS011;7797;51.428;6.756;2023-12-22T04:38:06;10.13;;;1.97;;
15398;SDS011;7797;51.428;6.756;2023-12-22T04:40:33;6.20;;;1.77;;
15398;SDS011;7797;51.428;6.756;2023-12-22T04:42:59;6.23;;;2.00;;
15398;SDS011;7797;51.428;6.756;2023-12-22T04:45:26;7.57;;;1.40;;
15398;SDS011;7797;51.428;6.756;2023-12-22T04:47:53;5.27;;;1.60;;
15398;SDS011;7797;51.428;6.756;2023-12-22T04:50:20;8.67;;;2.17;;
15398;SDS011;7797;51.428;6.756;2023-12-22T04:52:47;6.43;;;2.23;;
15398;SDS011;7797;51.428;6.756;2023-12-22T04:55:13;12.80;;;2.10;;
15398;SDS011;7797;51.428;6.756;2023-12-22T04:57:42;8.57;;;1.70;;
15398;SDS011;7797;51.428;6.756;2023-12-22T05:00:08;11.23;;;2.10;;
15398;SDS011;7797;51.428;6.756;2023-12-22T05:02:35;6.90;;;2.17;;
15398;SDS011;7797;51.428;6.756;2023-12-22T05:05:02;7.53;;;1.97;;
15398;SDS011;7797;51.428;6.756;2023-12-22T05:07:29;5.17;;;1.90;;
15398;SDS011;7797;51.428;6.756;2023-12-22T05:09:56;2.33;;;1.60;;
15398;SDS011;7797;51.428;6.756;2023-12-22T05:12:23;5.07;;;1.40;;
15398;SDS011;7797;51.428;6.756;2023-12-22T05:14:50;4.27;;;1.40;;
15398;SDS011;7797;51.428;6.756;2023-12-22T05:17:17;1.43;;;1.00;;
15398;SDS011;7797;51.428;6.756;2023-12-22T05:19:43;4.33;;;1.40;;
15398;SDS011;7797;51.428;6.756;2023-12-22T05:22:10;3.93;;;1.43;;
15398;SDS011;7797;51.428;6.756;2023-12-22T05:24:37;2.13;;;1.23;;
15398;SDS011;7797;51.428;6.756;2023-12-22T05:27:05;2.57;;;0.97;;
15398;SDS011;7797;51.428;6.756;2023-12-22T05:29:31;2.70;;;1.00;;
15398;SDS011;7797;51.428;6.756;2023-12-22T05:31:58;3.43;;;1.20;;
15398;SDS011;7797;51.428;6.756;2023-12-22T05:34:26;5.90;;;1.40;;
15398;SDS011;7797;51.428;6.756;2023-12-22T05:36:53;2.10;;;0.80;;
15398;SDS011;7797;51.428;6.756;2023-12-22T05:39:20;1.53;;;0.80;;
15398;SDS011;7797;51.428;6.756;2023-12-22T05:41:46;1.20;;;1.10;;
15398;SDS011;7797;51.428;6.756;2023-12-22T05:44:13;2.37;;;1.27;;
15398;SDS011;7797;51.428;6.756;2023-12-22T05:46:40;4.33;;;1.23;;
15398;SDS011;7797;51.428;6.756;2023-12-22T05:49:07;3.93;;;1.37;;
15398;SDS011;7797;51.428;6.756;2023-12-22T05:51:38;3.70;;;1.70;;
15398;SDS011;7797;51.428;6.756;2023-12-22T05:54:08;5.97;;;1.60;;
15398;SDS011;7797;51.428;6.756;2023-12-22T05:56:35;3.10;;;0.90;;
15398;SDS011;7797;51.428;6.756;2023-12-22T05:59:02;4.47;;;1.60;;
15398;SDS011;7797;51.428;6.756;2023-12-22T06:01:29;6.67;;;1.90;;
15398;SDS011;7797;51.428;6.756;2023-12-22T06:03:56;7.37;;;1.63;;
15398;SDS011;7797;51.428;6.756;2023-12-22T06:06:23;4.17;;;1.20;;
15398;SDS011;7797;51.428;6.756;2023-12-22T06:08:50;3.03;;;1.03;;
15398;SDS011;7797;51.428;6.756;2023-12-22T06:11:17;4.23;;;1.67;;
15398;SDS011;7797;51.428;6.756;2023-12-22T06:13:44;5.80;;;1.60;;
15398;SDS011;7797;51.428;6.756;2023-12-22T06:16:14;9.07;;;1.50;;
15398;SDS011;7797;51.428;6.756;2023-12-22T06:18:41;5.40;;;1.70;;
15398;SDS011;7797;51.428;6.756;2023-12-22T06:21:08;5.17;;;1.50;;
15398;SDS011;7797;51.428;6.756;2023-12-22T06:23:36;6.90;;;1.70;;
15398;SDS011;7797;51.428;6.756;2023-12-22T06:26:12;4.00;;;1.10;;
15398;SDS011;7797;51.428;6.756;2023-12-22T06:28:39;5.20;;;1.50;;
15398;SDS011;7797;51.428;6.756;2023-12-22T06:31:07;5.80;;;1.70;;
15398;SDS011;7797;51.428;6.756;2023-12-22T06:33:35;4.47;;;1.70;;
15398;SDS011;7797;51.428;6.756;2023-12-22T06:36:02;4.43;;;1.77;;
15398;SDS011;7797;51.428;6.756;2023-12-22T06:38:30;2.57;;;1.53;;
15398;SDS011;7797;51.428;6.756;2023-12-22T06:40:57;2.43;;;1.40;;
15398;SDS011;7797;51.428;6.756;2023-12-22T06:43:24;8.87;;;2.00;;
15398;SDS011;7797;51.428;6.756;2023-12-22T06:45:51;8.07;;;1.97;;
15398;SDS011;7797;51.428;6.756;2023-12-22T06:48:21;7.07;;;1.60;;
15398;SDS011;7797;51.428;6.756;2023-12-22T06:50:48;7.07;;;2.27;;
15398;SDS011;7797;51.428;6.756;2023-12-22T06:53:15;5.43;;;2.00;;
15398;SDS011;7797;51.428;6.756;2023-12-22T06:55:51;6.77;;;2.10;;
15398;SDS011;7797;51.428;6.756;2023-12-22T06:58:21;9.60;;;2.00;;
15398;SDS011;7797;51.428;6.756;2023-12-22T07:00:51;7.70;;;2.23;;
15398;SDS011;7797;51.428;6.756;2023-12-22T07:03:18;6.43;;;1.73;;
15398;SDS011;7797;51.428;6.756;2023-12-22T07:05:45;6.40;;;1.83;;
15398;SDS011;7797;51.428;6.756;2023-12-22T07:08:12;4.37;;;1.47;;
15398;SDS011;7797;51.428;6.756;2023-12-22T07:10:39;6.60;;;1.60;;
15398;SDS011;7797;51.428;6.756;2023-12-22T07:13:06;7.63;;;1.43;;
15398;SDS011;7797;51.428;6.756;2023-12-22T07:15:33;6.17;;;1.40;;
15398;SDS011;7797;51.428;6.756;2023-12-22T07:18:00;4.87;;;1.53;;
15398;SDS011;7797;51.428;6.756;2023-12-22T07:20:28;8.27;;;2.10;;
15398;SDS011;7797;51.428;6.756;2023-12-22T07:22:54;3.57;;;1.80;;
15398;SDS011;7797;51.428;6.756;2023-12-22T07:25:24;4.17;;;1.33;;
15398;SDS011;7797;51.428;6.756;2023-12-22T07:27:51;7.93;;;2.37;;
15398;SDS011;7797;51.428;6.756;2023-12-22T07:30:19;4.40;;;1.60;;
15398;SDS011;7797;51.428;6.756;2023-12-22T07:32:47;7.37;;;1.80;;
15398;SDS011;7797;51.428;6.756;2023-12-22T07:35:19;10.83;;;2.00;;
15398;SDS011;7797;51.428;6.756;2023-12-22T07:37:46;5.60;;;1.70;;
15398;SDS011;7797;51.428;6.756;2023-12-22T07:40:13;9.47;;;2.03;;
15398;SDS011;7797;51.428;6.756;2023-12-22T07:42:49;6.57;;;1.80;;
15398;SDS011;7797;51.428;6.756;2023-12-22T07:45:17;2.13;;;1.37;;
15398;SDS011;7797;51.428;6.756;2023-12-22T07:47:49;4.57;;;1.70;;
15398;SDS011;7797;51.428;6.756;2023-12-22T07:50:16;7.43;;;2.10;;
15398;SDS011;7797;51.428;6.756;2023-12-22T07:52:45;5.00;;;2.00;;
15398;SDS011;7797;51.428;6.756;2023-12-22T07:55:13;5.90;;;2.03;;
15398;SDS011;7797;51.428;6.756;2023-12-22T07:57:39;7.60;;;2.63;;
15398;SDS011;7797;51.428;6.756;2023-12-22T08:00:07;10.80;;;2.27;;
15398;SDS011;7797;51.428;6.756;2023-12-22T08:02:37;7.27;;;2.27;;
15398;SDS011;7797;51.428;6.756;2023-12-22T08:05:04;10.47;;;2.73;;
15398;SDS011;7797;51.428;6.756;2023-12-22T08:07:31;7.83;;;2.67;;
15398;SDS011;7797;51.428;6.756;2023-12-22T08:09:58;9.23;;;2.50;;
15398;SDS011;7797;51.428;6.756;2023-12-22T08:12:25;11.23;;;2.30;;
15398;SDS011;7797;51.428;6.756;2023-12-22T08:14:53;9.07;;;2.37;;
15398;SDS011;7797;51.428;6.756;2023-12-22T08:17:20;8.57;;;2.67;;
15398;SDS011;7797;51.428;6.756;2023-12-22T08:19:47;10.43;;;3.27;;
15398;SDS011;7797;51.428;6.756;2023-12-22T08:22:15;11.37;;;2.77;;
15398;SDS011;7797;51.428;6.756;2023-12-22T08:24:43;13.47;;;3.90;;
15398;SDS011;7797;51.428;6.756;2023-12-22T08:27:10;8.57;;;2.97;;
15398;SDS011;7797;51.428;6.756;2023-12-22T08:29:37;10.83;;;2.33;;
15398;SDS011;7797;51.428;6.756;2023-12-22T08:32:04;11.47;;;3.17;;
15398;SDS011;7797;51.428;6.756;2023-12-22T08:34:32;12.20;;;3.10;;
15398;SDS011;7797;51.428;6.756;2023-12-22T08:36:58;11.20;;;3.17;;
15398;SDS011;7797;51.428;6.756;2023-12-22T08:39:27;8.40;;;2.63;;
15398;SDS011;7797;51.428;6.756;2023-12-22T08:41:54;14.23;;;3.33;;
15398;SDS011;7797;51.428;6.756;2023-12-22T08:44:21;14.13;;;3.23;;
15398;SDS011;7797;51.428;6.756;2023-12-22T08:46:48;14.37;;;3.10;;
15398;SDS011;7797;51.428;6.756;2023-12-22T08:49:15;14.73;;;3.10;;
15398;SDS011;7797;51.428;6.756;2023-12-22T08:51:42;15.77;;;2.97;;
15398;SDS011;7797;51.428;6.756;2023-12-22T08:54:09;16.30;;;3.63;;
15398;SDS011;7797;51.428;6.756;2023-12-22T08:56:36;8.20;;;3.03;;
15398;SDS011;7797;51.428;6.756;2023-12-22T08:59:03;14.83;;;3.60;;
15398;SDS011;7797;51.428;6.756;2023-12-22T09:01:30;12.90;;;3.23;;
15398;SDS011;7797;51.428;6.756;2023-12-22T09:03:56;15.13;;;3.50;;
15398;SDS011;7797;51.428;6.756;2023-12-22T09:06:23;18.07;;;4.23;;
15398;SDS011;7797;51.428;6.756;2023-12-22T09:08:51;9.53;;;3.03;;
15398;SDS011;7797;51.428;6.756;2023-12-22T09:11:20;12.63;;;3.30;;
15398;SDS011;7797;51.428;6.756;2023-12-22T09:13:48;21.80;;;3.70;;
15398;SDS011;7797;51.428;6.756;2023-12-22T09:16:20;18.10;;;3.30;;
15398;SDS011;7797;51.428;6.756;2023-12-22T09:18:51;16.20;;;3.57;;
15398;SDS011;7797;51.428;6.756;2023-12-22T09:21:19;10.73;;;3.47;;
15398;SDS011;7797;51.428;6.756;2023-12-22T09:23:46;15.03;;;3.37;;
15398;SDS011;7797;51.428;6.756;2023-12-22T09:26:13;11.10;;;3.13;;
15398;SDS011;7797;51.428;6.756;2023-12-22T09:28:41;18.63;;;3.50;;
15398;SDS011;7797;51.428;6.756;2023-12-22T09:31:08;19.17;;;3.67;;
15398;SDS011;7797;51.428;6.756;2023-12-22T09:33:39;15.73;;;3.60;;
15398;SDS011;7797;51.428;6.756;2023-12-22T09:36:07;10.13;;;3.00;;
15398;SDS011;7797;51.428;6.756;2023-12-22T09:38:34;11.90;;;2.73;;
15398;SDS011;7797;51.428;6.756;2023-12-22T09:41:01;11.63;;;3.33;;
15398;SDS011;7797;51.428;6.756;2023-12-22T09:43:28;13.40;;;2.80;;
15398;SDS011;7797;51.428;6.756;2023-12-22T09:45:55;10.20;;;2.60;;
15398;SDS011;7797;51.428;6.756;2023-12-22T09:48:22;11.53;;;2.70;;
15398;SDS011;7797;51.428;6.756;2023-12-22T09:50:54;14.13;;;3.00;;
15398;SDS011;7797;51.428;6.756;2023-12-22T09:53:21;8.77;;;2.40;;
15398;SDS011;7797;51.428;6.756;2023-12-22T09:55:51;10.67;;;2.67;;
15398;SDS011;7797;51.428;6.756;2023-12-22T09:58:20;10.53;;;2.63;;
15398;SDS011;7797;51.428;6.756;2023-12-22T10:00:47;9.43;;;1.93;;
15398;SDS011;7797;51.428;6.756;2023-12-22T10:03:15;10.93;;;2.73;;
15398;SDS011;7797;51.428;6.756;2023-12-22T10:05:43;7.93;;;2.27;;
15398;SDS011;7797;51.428;6.756;2023-12-22T10:08:10;8.77;;;2.20;;
15398;SDS011;7797;51.428;6.756;2023-12-22T10:10:39;5.57;;;1.90;;
15398;SDS011;7797;51.428;6.756;2023-12-22T10:13:09;6.73;;;2.10;;
15398;SDS011;7797;51.428;6.756;2023-12-22T10:15:37;6.30;;;1.47;;
15398;SDS011;7797;51.428;6.756;2023-12-22T10:18:07;5.17;;;1.73;;
15398;SDS011;7797;51.428;6.756;2023-12-22T10:20:35;3.57;;;1.60;;
15398;SDS011;7797;51.428;6.756;2023-12-22T10:23:02;6.60;;;1.70;;
15398;SDS011;7797;51.428;6.756;2023-12-22T10:25:29;5.13;;;1.70;;
15398;SDS011;7797;51.428;6.756;2023-12-22T10:27:56;7.60;;;1.87;;
15398;SDS011;7797;51.428;6.756;2023-12-22T10:30:23;7.67;;;1.90;;
15398;SDS011;7797;51.428;6.756;2023-12-22T10:32:51;3.07;;;1.60;;
15398;SDS011;7797;51.428;6.756;2023-12-22T10:35:21;4.73;;;1.67;;
15398;SDS011;7797;51.428;6.756;2023-12-22T10:37:48;4.97;;;1.80;;
15398;SDS011;7797;51.428;6.756;2023-12-22T10:40:20;5.87;;;1.73;;
15398;SDS011;7797;51.428;6.756;2023-12-22T10:42:48;4.50;;;1.50;;
15398;SDS011;7797;51.428;6.756;2023-12-22T10:45:15;5.03;;;1.40;;
15398;SDS011;7797;51.428;6.756;2023-12-22T10:47:43;1.33;;;1.10;;
15398;SDS011;7797;51.428;6.756;2023-12-22T10:50:13;2.87;;;1.83;;
15398;SDS011;7797;51.428;6.756;2023-12-22T10:52:41;4.60;;;1.90;;
15398;SDS011;7797;51.428;6.756;2023-12-22T10:55:08;6.17;;;1.90;;
15398;SDS011;7797;51.428;6.756;2023-12-22T10:57:35;5.43;;;1.97;;
15398;SDS011;7797;51.428;6.756;2023-12-22T11:00:06;5.67;;;1.67;;
15398;SDS011;7797;51.428;6.756;2023-12-22T11:02:34;4.00;;;1.90;;
15398;SDS011;7797;51.428;6.756;2023-12-22T11:05:02;4.13;;;2.07;;
15398;SDS011;7797;51.428;6.756;2023-12-22T11:07:35;4.43;;;1.77;;
15398;SDS011;7797;51.428;6.756;2023-12-22T11:10:04;4.80;;;2.10;;
15398;SDS011;7797;51.428;6.756;2023-12-22T11:12:37;5.97;;;1.73;;
15398;SDS011;7797;51.428;6.756;2023-12-22T11:15:05;5.40;;;2.00;;
15398;SDS011;7797;51.428;6.756;2023-12-22T11:17:34;4.60;;;1.70;;
15398;SDS011;7797;51.428;6.756;2023-12-22T11:20:02;6.40;;;2.27;;
15398;SDS011;7797;51.428;6.756;2023-12-22T11:22:30;2.33;;;1.60;;
15398;SDS011;7797;51.428;6.756;2023-12-22T11:24:58;1.43;;;1.30;;
15398;SDS011;7797;51.428;6.756;2023-12-22T11:27:26;2.73;;;1.30;;
15398;SDS011;7797;51.428;6.756;2023-12-22T11:29:53;5.70;;;1.53;;
15398;SDS011;7797;51.428;6.756;2023-12-22T11:32:21;3.13;;;1.60;;
15398;SDS011;7797;51.428;6.756;2023-12-22T11:34:49;3.47;;;1.10;;
15398;SDS011;7797;51.428;6.756;2023-12-22T11:37:16;1.93;;;1.47;;
15398;SDS011;7797;51.428;6.756;2023-12-22T11:39:43;4.10;;;1.50;;
15398;SDS011;7797;51.428;6.756;2023-12-22T11:42:13;4.27;;;1.40;;
15398;SDS011;7797;51.428;6.756;2023-12-22T11:44:42;2.80;;;1.20;;
15398;SDS011;7797;51.428;6.756;2023-12-22T11:47:10;1.93;;;1.27;;
15398;SDS011;7797;51.428;6.756;2023-12-22T11:49:39;1.07;;;1.00;;
15398;SDS011;7797;51.428;6.756;2023-12-22T11:52:16;1.97;;;1.03;;
15398;SDS011;7797;51.428;6.756;2023-12-22T11:54:51;1.73;;;1.40;;
15398;SDS011;7797;51.428;6.756;2023-12-22T11:57:33;2.63;;;1.30;;
15398;SDS011;7797;51.428;6.756;2023-12-22T12:00:08;1.93;;;1.23;;
15398;SDS011;7797;51.428;6.756;2023-12-22T12:02:38;4.70;;;1.33;;
15398;SDS011;7797;51.428;6.756;2023-12-22T12:05:07;2.60;;;1.37;;
15398;SDS011;7797;51.428;6.756;2023-12-22T12:07:45;3.50;;;1.50;;
15398;SDS011;7797;51.428;6.756;2023-12-22T12:13:06;3.33;;;1.33;;
15398;SDS011;7797;51.428;6.756;2023-12-22T12:15:33;2.73;;;1.03;;
15398;SDS011;7797;51.428;6.756;2023-12-22T12:18:01;3.17;;;1.50;;
15398;SDS011;7797;51.428;6.756;2023-12-22T12:20:29;1.37;;;1.20;;
15398;SDS011;7797;51.428;6.756;2023-12-22T12:22:56;3.40;;;1.40;;
15398;SDS011;7797;51.428;6.756;2023-12-22T12:25:23;2.10;;;1.23;;
15398;SDS011;7797;51.428;6.756;2023-12-22T12:28:04;2.33;;;1.33;;
15398;SDS011;7797;51.428;6.756;2023-12-22T12:30:33;2.00;;;1.47;;
15398;SDS011;7797;51.428;6.756;2023-12-22T12:33:07;2.30;;;1.40;;
15398;SDS011;7797;51.428;6.756;2023-12-22T12:35:36;1.97;;;1.03;;
15398;SDS011;7797;51.428;6.756;2023-12-22T12:38:09;1.97;;;1.30;;
15398;SDS011;7797;51.428;6.756;2023-12-22T12:40:37;1.37;;;1.30;;
15398;SDS011;7797;51.428;6.756;2023-12-22T12:43:06;3.97;;;1.20;;
15398;SDS011;7797;51.428;6.756;2023-12-22T12:45:33;3.13;;;1.40;;
15398;SDS011;7797;51.428;6.756;2023-12-22T12:48:03;2.33;;;1.43;;
15398;SDS011;7797;51.428;6.756;2023-12-22T12:50:33;3.83;;;1.90;;
15398;SDS011;7797;51.428;6.756;2023-12-22T12:53:01;9.27;;;1.57;;
15398;SDS011;7797;51.428;6.756;2023-12-22T12:55:28;2.20;;;1.70;;
15398;SDS011;7797;51.428;6.756;2023-12-22T12:57:56;4.07;;;1.73;;
15398;SDS011;7797;51.428;6.756;2023-12-22T13:00:29;2.70;;;2.03;;
15398;SDS011;7797;51.428;6.756;2023-12-22T13:03:04;1.97;;;1.30;;
15398;SDS011;7797;51.428;6.756;2023-12-22T13:05:33;3.83;;;1.30;;
15398;SDS011;7797;51.428;6.756;2023-12-22T13:08:10;1.37;;;1.30;;
15398;SDS011;7797;51.428;6.756;2023-12-22T13:10:39;5.23;;;2.40;;
15398;SDS011;7797;51.428;6.756;2023-12-22T13:13:06;3.57;;;2.00;;
15398;SDS011;7797;51.428;6.756;2023-12-22T13:15:33;8.33;;;2.47;;
15398;SDS011;7797;51.428;6.756;2023-12-22T13:18:01;3.63;;;1.90;;
15398;SDS011;7797;51.428;6.756;2023-12-22T13:20:28;6.47;;;2.30;;
15398;SDS011;7797;51.428;6.756;2023-12-22T13:22:55;4.53;;;1.73;;
15398;SDS011;7797;51.428;6.756;2023-12-22T13:25:22;2.37;;;1.17;;
15398;SDS011;7797;51.428;6.756;2023-12-22T13:27:51;4.87;;;1.50;;
15398;SDS011;7797;51.428;6.756;2023-12-22T13:30:34;2.23;;;1.60;;
15398;SDS011;7797;51.428;6.756;2023-12-22T13:33:08;4.53;;;1.70;;
15398;SDS011;7797;51.428;6.756;2023-12-22T13:35:35;3.63;;;1.80;;
15398;SDS011;7797;51.428;6.756;2023-12-22T13:38:08;3.10;;;1.60;;
15398;SDS011;7797;51.428;6.756;2023-12-22T13:40:36;3.10;;;1.50;;
15398;SDS011;7797;51.428;6.756;2023-12-22T13:43:05;4.43;;;1.87;;
15398;SDS011;7797;51.428;6.756;2023-12-22T13:45:34;3.37;;;1.73;;
15398;SDS011;7797;51.428;6.756;2023-12-22T13:48:01;1.90;;;1.80;;
15398;SDS011;7797;51.428;6.756;2023-12-22T13:50:28;2.87;;;1.97;;
15398;SDS011;7797;51.428;6.756;2023-12-22T13:52:57;1.80;;;1.70;;
15398;SDS011;7797;51.428;6.756;2023-12-22T13:55:34;3.97;;;1.90;;
15398;SDS011;7797;51.428;6.756;2023-12-22T13:58:04;2.97;;;2.07;;
15398;SDS011;7797;51.428;6.756;2023-12-22T14:00:32;4.50;;;1.10;;
15398;SDS011;7797;51.428;6.756;2023-12-22T14:03:00;5.50;;;1.50;;
15398;SDS011;7797;51.428;6.756;2023-12-22T14:05:28;3.83;;;1.50;;
15398;SDS011;7797;51.428;6.756;2023-12-22T14:08:00;1.60;;;1.40;;
15398;SDS011;7797;51.428;6.756;2023-12-22T14:10:27;3.97;;;1.83;;
15398;SDS011;7797;51.428;6.756;2023-12-22T14:12:55;4.53;;;1.60;;
15398;SDS011;7797;51.428;6.756;2023-12-22T14:15:22;3.60;;;1.07;;
15398;SDS011;7797;51.428;6.756;2023-12-22T14:17:56;4.73;;;1.77;;
15398;SDS011;7797;51.428;6.756;2023-12-22T14:20:23;4.77;;;1.90;;
15398;SDS011;7797;51.428;6.756;2023-12-22T14:22:51;3.13;;;1.47;;
15398;SDS011;7797;51.428;6.756;2023-12-22T14:25:19;2.53;;;1.40;;
15398;SDS011;7797;51.428;6.756;2023-12-22T14:27:46;2.87;;;1.40;;
15398;SDS011;7797;51.428;6.756;2023-12-22T14:30:13;3.07;;;1.20;;
15398;SDS011;7797;51.428;6.756;2023-12-22T14:32:40;5.43;;;1.63;;
15398;SDS011;7797;51.428;6.756;2023-12-22T14:35:07;2.33;;;1.50;;
15398;SDS011;7797;51.428;6.756;2023-12-22T14:37:34;2.53;;;1.50;;
15398;SDS011;7797;51.428;6.756;2023-12-22T14:40:02;4.50;;;1.30;;
15398;SDS011;7797;51.428;6.756;2023-12-22T14:42:29;1.90;;;1.23;;
15398;SDS011;7797;51.428;6.756;2023-12-22T14:44:56;2.67;;;1.30;;
15398;SDS011;7797;51.428;6.756;2023-12-22T14:47:23;4.00;;;1.33;;
15398;SDS011;7797;51.428;6.756;2023-12-22T14:49:50;3.37;;;1.27;;
15398;SDS011;7797;51.428;6.756;2023-12-22T14:52:17;4.50;;;1.60;;
15398;SDS011;7797;51.428;6.756;2023-12-22T14:54:44;3.13;;;1.30;;
15398;SDS011;7797;51.428;6.756;2023-12-22T14:57:10;3.70;;;1.23;;
15398;SDS011;7797;51.428;6.756;2023-12-22T14:59:37;3.07;;;1.30;;
15398;SDS011;7797;51.428;6.756;2023-12-22T15:02:04;3.03;;;1.23;;
15398;SDS011;7797;51.428;6.756;2023-12-22T15:04:32;1.30;;;1.03;;
15398;SDS011;7797;51.428;6.756;2023-12-22T15:07:00;1.87;;;1.33;;
15398;SDS011;7797;51.428;6.756;2023-12-22T15:09:27;1.83;;;0.87;;
15398;SDS011;7797;51.428;6.756;2023-12-22T15:11:54;1.37;;;1.00;;